NCAR-RAP Real-Time Weather Data

Output produced by METARs form (08 May 2021  00:54 UTC)
found at http://weather.rap.ucar.edu/surface/
 
KBGD 080051Z AUTO 09008G14KT 10SM CLR 24/11 A2989 RMK AO2 PK WND 36031/2352 WSHFT 2338 RAE06 SLP089 P0000 T02390111
KBGD 072357Z AUTO 01018G32KT 10SM -RA FEW070 FEW085 BKN110 23/10 A2989 RMK AO2 PK WND 36031/2352 WSHFT 2338 LTG DSNT ALQDS P0000 T02330100
KBGD 072351Z AUTO 35023G32KT 10SM VCTS -RA FEW070 FEW085 BKN110 23/09 A2990 RMK AO2 PK WND 29053/2320 WSHFT 2333 LTG DSNT ALQDS RAB51 TSB24E51 SLP094 P0000 60000 T02330094 10350 20233 53008
KBGD 072328Z AUTO 28027G53KT 6SM TS HZ SQ SCT110 27/06 A2990 RMK AO2 PK WND 29053/2320 WSHFT 2314 LTG DSNT ALQDS TSB24 PRESRR T02720056
KBGD 072320Z AUTO 28036G53KT 8SM VCTS SQ FEW110 32/06 A2987 RMK AO2 PK WND 29053/2320 LTG DSNT ALQDS PRESRR T03220056
KBGD 072310Z AUTO 24014G21KT 10SM CLR 33/06 A2981 RMK AO2 LTG DSNT ALQDS T03330056
KBGD 072251Z AUTO 22015G25KT 10SM VCTS FEW110 34/06 A2980 RMK AO2 LTG DSNT ALQDS SLP046 T03390056
KBGD 072151Z AUTO 19012G20KT 10SM CLR 34/07 A2984 RMK AO2 PK WND 20026/2126 LTG DSNT NE SLP060 T03390067
KBGD 072051Z AUTO 19016G23KT 10SM CLR 34/07 A2988 RMK AO2 PK WND 20030/2002 LTG DSNT NW SLP072 T03390067 56041
KBGD 071951Z AUTO 20017G27KT 10SM CLR 32/07 A2991 RMK AO2 PK WND 21033/1932 SLP085 T03220072
KBGD 071851Z AUTO 21019G29KT 10SM CLR 32/08 A2995 RMK AO2 PK WND 20029/1811 SLP100 T03220083
KBGD 071751Z AUTO 20020G28KT 10SM CLR 29/09 A3001 RMK AO2 PK WND 20031/1724 SLP119 T02940094 10300 20156 58026
KBGD 071651Z AUTO 20016G28KT 10SM CLR 28/10 A3004 RMK AO2 PK WND 22029/1618 SLP132 T02780100
KBGD 071551Z AUTO 21015G25KT 10SM CLR 25/10 A3007 RMK AO2 PK WND 21026/1538 SLP145 T02500100
KBGD 071451Z AUTO 19017G24KT 10SM CLR 22/09 A3009 RMK AO2 SLP153 T02170094 58011
KBGD 071351Z AUTO 18016G22KT 10SM CLR 19/09 A3011 RMK AO2 SLP161 T01890094
KBGD 071251Z AUTO 17010G18KT 10SM CLR 17/09 A3011 RMK AO2 SLP163 T01670094
KBGD 071151Z AUTO 18008KT 10SM CLR 16/09 A3013 RMK AO2 SLP167 T01560089 10189 20156 50001
KBGD 071051Z AUTO 18008G16KT 10SM CLR 16/09 A3013 RMK AO2 SLP167 T01610089